createdAt,value
2023-04-16T00:00:03.358Z,100038.14
2023-04-16T00:02:58.890Z,100036.78
2023-04-16T00:05:27.546Z,100038.88
2023-04-16T00:07:55.236Z,100041.79
2023-04-16T00:10:22.941Z,100043.23
2023-04-16T00:12:50.690Z,100045.53
2023-04-16T00:15:18.399Z,100047.95
2023-04-16T00:17:46.433Z,100048.99
2023-04-16T00:20:14.236Z,100054.55
2023-04-16T00:22:41.884Z,100052.67
2023-04-16T00:25:09.663Z,100053.60
2023-04-16T00:27:37.333Z,100051.02
2023-04-16T00:30:05.959Z,100053.41
2023-04-16T00:32:33.812Z,100051.17
2023-04-16T00:35:01.583Z,100051.59
2023-04-16T00:37:30.301Z,100052.02
2023-04-16T00:39:58.055Z,100051.05
2023-04-16T00:42:25.878Z,100059.46
2023-04-16T00:44:53.647Z,100060.85
2023-04-16T00:47:21.738Z,100061.36
2023-04-16T00:49:50.153Z,100059.57
2023-04-16T00:52:17.846Z,100061.77
2023-04-16T00:54:46.027Z,100061.13
2023-04-16T00:57:14.443Z,100062.09
2023-04-16T00:59:42.246Z,100065.23
2023-04-16T01:02:09.965Z,100059.91
2023-04-16T01:04:37.959Z,100063.48
2023-04-16T01:07:06.025Z,100062.95
2023-04-16T01:09:33.766Z,100060.57
2023-04-16T01:12:02.043Z,100059.92
2023-04-16T01:14:31.646Z,100061.23
2023-04-16T01:16:59.353Z,100057.85
2023-04-16T01:19:27.089Z,100059.06
2023-04-16T01:21:54.831Z,100056.52
2023-04-16T01:24:22.430Z,100050.60
2023-04-16T01:26:50.256Z,100049.56
2023-04-16T01:29:18.040Z,100048.05
2023-04-16T01:31:46.919Z,100046.55
2023-04-16T01:34:24.098Z,100045.13
2023-04-16T01:36:51.845Z,100049.54
2023-04-16T01:39:19.640Z,100053.52
2023-04-16T01:41:47.346Z,100050.44
2023-04-16T01:44:15.054Z,100051.34
2023-04-16T01:46:44.148Z,100055.09
2023-04-16T01:49:12.285Z,100055.67
2023-04-16T01:51:39.947Z,100055.77
2023-04-16T01:54:07.961Z,100059.70
2023-04-16T01:56:35.769Z,100057.75
2023-04-16T01:59:03.611Z,100058.91
2023-04-16T02:01:36.186Z,100056.53
2023-04-16T02:04:04.286Z,100053.89
2023-04-16T02:06:32.082Z,100055.73
2023-04-16T02:08:59.771Z,100055.72
2023-04-16T02:11:27.412Z,100056.44
2023-04-16T02:13:56.303Z,100059.52
2023-04-16T02:16:24.352Z,100060.77
2023-04-16T02:19:01.812Z,100061.74
2023-04-16T02:21:31.615Z,100059.75
2023-04-16T02:23:59.475Z,100063.05
2023-04-16T02:26:29.636Z,100063.69
2023-04-16T02:29:00.550Z,100069.17
2023-04-16T02:31:33.756Z,100069.36
2023-04-16T02:34:01.753Z,100070.21
2023-04-16T02:36:29.680Z,100072.79
2023-04-16T02:38:57.899Z,100077.16
2023-04-16T02:41:25.733Z,100075.52
2023-04-16T02:43:53.453Z,100077.29
2023-04-16T02:46:21.126Z,100079.75
2023-04-16T02:48:49.008Z,100082.30
2023-04-16T02:51:16.722Z,100083.71
2023-04-16T02:53:46.093Z,100086.20
2023-04-16T02:56:14.268Z,100089.97
2023-04-16T02:58:42.227Z,100088.19
2023-04-16T03:01:09.931Z,100090.72
2023-04-16T03:03:37.867Z,100094.00
2023-04-16T03:06:05.670Z,100094.77
2023-04-16T03:08:33.497Z,100096.72
2023-04-16T03:11:01.487Z,100097.81
2023-04-16T03:13:29.261Z,100097.79
2023-04-16T03:15:57.454Z,100101.71
2023-04-16T03:18:25.309Z,100101.34
2023-04-16T03:20:53.737Z,100102.55
2023-04-16T03:23:21.469Z,100102.64
2023-04-16T03:25:49.212Z,100106.05
2023-04-16T03:28:18.904Z,100105.99
2023-04-16T03:30:50.777Z,100111.98
2023-04-16T03:33:18.866Z,100113.75
2023-04-16T03:35:46.539Z,100121.65
2023-04-16T03:38:14.763Z,100122.12
2023-04-16T03:40:42.536Z,100120.17
2023-04-16T03:43:10.493Z,100122.23
2023-04-16T03:45:43.582Z,100123.20
2023-04-16T03:48:12.047Z,100122.68
2023-04-16T03:50:39.745Z,100131.13
2023-04-16T03:53:08.803Z,100124.70
2023-04-16T03:55:36.910Z,100126.31
2023-04-16T03:58:04.973Z,100128.64
2023-04-16T04:00:33.080Z,100132.52
2023-04-16T04:03:06.638Z,100134.45
2023-04-16T04:05:41.706Z,100139.20
2023-04-16T04:08:11.203Z,100141.46
2023-04-16T04:10:39.189Z,100146.29
2023-04-16T04:13:07.327Z,100152.01
2023-04-16T04:15:35.432Z,100152.11
2023-04-16T04:18:03.231Z,100152.48
2023-04-16T04:20:31.291Z,100156.90
2023-04-16T04:22:59.324Z,100160.98
2023-04-16T04:25:27.249Z,100163.21
2023-04-16T04:27:55.293Z,100163.32
2023-04-16T04:30:23.235Z,100159.30
2023-04-16T04:32:51.006Z,100156.18
2023-04-16T04:35:18.721Z,100161.93
2023-04-16T04:37:48.866Z,100157.81
2023-04-16T04:40:19.460Z,100157.55
2023-04-16T04:42:47.454Z,100162.36
2023-04-16T04:45:16.488Z,100162.69
2023-04-16T04:47:44.196Z,100161.61
2023-04-16T04:50:11.995Z,100166.70
2023-04-16T04:52:39.697Z,100167.36
2023-04-16T04:55:08.220Z,100169.28
2023-04-16T04:57:36.699Z,100171.23
2023-04-16T05:00:06.257Z,100172.14
2023-04-16T05:02:41.071Z,100169.70
2023-04-16T05:05:08.943Z,100168.61
2023-04-16T05:07:36.816Z,100166.13
2023-04-16T05:10:04.652Z,100170.45
2023-04-16T05:12:32.281Z,100173.50
2023-04-16T05:14:59.938Z,100174.13
2023-04-16T05:17:27.689Z,100175.23
2023-04-16T05:19:55.547Z,100177.06
2023-04-16T05:22:23.247Z,100181.48
2023-04-16T05:24:50.915Z,100180.45
2023-04-16T05:27:18.600Z,100183.06
2023-04-16T05:29:46.269Z,100189.94
2023-04-16T05:32:13.997Z,100189.66
2023-04-16T05:34:41.714Z,100194.72
2023-04-16T05:37:09.337Z,100196.32
2023-04-16T05:39:37.042Z,100197.17
2023-04-16T05:42:04.676Z,100195.80
2023-04-16T05:44:32.352Z,100201.17
2023-04-16T05:47:00.172Z,100198.10
2023-04-16T05:49:27.894Z,100200.66
2023-04-16T05:51:55.656Z,100202.23
2023-04-16T05:54:24.168Z,100200.64
2023-04-16T05:56:51.878Z,100205.73
2023-04-16T05:59:19.603Z,100211.10
2023-04-16T06:01:47.301Z,100213.04
2023-04-16T06:04:15.071Z,100215.80
2023-04-16T06:06:42.960Z,100216.91
2023-04-16T06:09:11.228Z,100221.83
2023-04-16T06:11:39.284Z,100222.27
2023-04-16T06:14:07.066Z,100223.73
2023-04-16T06:16:34.704Z,100228.86
2023-04-16T06:19:02.392Z,100231.52
2023-04-16T06:21:31.646Z,100231.08
2023-04-16T06:23:59.463Z,100237.20
2023-04-16T06:26:27.163Z,100237.81
2023-04-16T06:28:54.852Z,100237.98
2023-04-16T06:31:22.669Z,100239.27
2023-04-16T06:33:50.507Z,100235.09
2023-04-16T06:36:18.328Z,100236.46
2023-04-16T06:38:46.522Z,100234.81
2023-04-16T06:41:14.617Z,100242.31
2023-04-16T06:43:42.286Z,100242.99
2023-04-16T06:46:10.339Z,100240.77
2023-04-16T06:48:38.038Z,100243.88
2023-04-16T06:51:05.763Z,100243.52
2023-04-16T06:53:33.699Z,100245.38
2023-04-16T06:56:01.439Z,100245.52
2023-04-16T06:58:29.347Z,100243.55
2023-04-16T07:00:57.211Z,100243.91
2023-04-16T07:03:25.050Z,100245.81
2023-04-16T07:05:53.094Z,100246.00
2023-04-16T07:08:21.019Z,100252.46
2023-04-16T07:10:48.781Z,100250.42
2023-04-16T07:13:18.520Z,100255.92
2023-04-16T07:15:46.196Z,100256.16
2023-04-16T07:18:14.229Z,100258.64
2023-04-16T07:20:42.590Z,100260.93
2023-04-16T07:23:10.527Z,100265.02
2023-04-16T07:25:38.236Z,100265.41
2023-04-16T07:28:05.989Z,100268.67
2023-04-16T07:30:34.486Z,100265.48
2023-04-16T07:33:03.088Z,100269.49
2023-04-16T07:35:31.155Z,100268.88
2023-04-16T07:37:58.879Z,100269.65
2023-04-16T07:40:26.551Z,100272.73
2023-04-16T07:42:55.112Z,100277.32
2023-04-16T07:45:23.677Z,100275.64
2023-04-16T07:47:51.380Z,100274.85
2023-04-16T07:50:19.478Z,100272.42
2023-04-16T07:52:47.340Z,100275.41
2023-04-16T07:55:15.330Z,100280.30
2023-04-16T07:57:42.966Z,100280.39
2023-04-16T08:00:11.381Z,100282.74
2023-04-16T08:02:42.177Z,100285.52
2023-04-16T08:05:11.202Z,100288.69
2023-04-16T08:07:39.119Z,100289.85
2023-04-16T08:10:07.344Z,100292.70
2023-04-16T08:12:35.248Z,100295.48
2023-04-16T08:15:03.651Z,100297.36
2023-04-16T08:17:33.108Z,100298.81
2023-04-16T08:20:01.670Z,100302.19
2023-04-16T08:22:29.316Z,100299.25
2023-04-16T08:24:57.333Z,100301.40
2023-04-16T08:27:25.015Z,100302.88
2023-04-16T08:29:52.642Z,100306.55
2023-04-16T08:32:20.752Z,100309.21
2023-04-16T08:34:48.671Z,100310.44
2023-04-16T08:37:16.377Z,100314.30
2023-04-16T08:39:44.012Z,100313.58
2023-04-16T08:42:16.852Z,100319.31
2023-04-16T08:44:49.273Z,100320.23
2023-04-16T08:47:17.566Z,100320.71
2023-04-16T08:49:48.718Z,100322.55
2023-04-16T08:52:19.753Z,100329.91
2023-04-16T08:55:03.581Z,100324.00
2023-04-16T08:57:37.474Z,100323.30
2023-04-16T09:00:07.431Z,100327.97
2023-04-16T09:02:36.079Z,100330.20
2023-04-16T09:05:06.520Z,100330.62
2023-04-16T09:07:35.399Z,100336.89
2023-04-16T09:10:03.355Z,100340.02
2023-04-16T09:12:31.649Z,100343.10
2023-04-16T09:15:01.067Z,100343.79
2023-04-16T09:17:28.874Z,100345.22
2023-04-16T09:19:56.737Z,100351.90
2023-04-16T09:22:24.571Z,100352.84
2023-04-16T09:24:52.250Z,100356.65
2023-04-16T09:27:20.435Z,100357.34
2023-04-16T09:29:49.706Z,100362.19
2023-04-16T09:32:17.624Z,100364.25
2023-04-16T09:34:55.882Z,100366.98
2023-04-16T09:37:23.748Z,100364.73
2023-04-16T09:40:08.387Z,100363.81
2023-04-16T09:42:37.120Z,100367.98
2023-04-16T09:45:06.189Z,100369.15
2023-04-16T09:47:41.567Z,100373.20
2023-04-16T09:50:12.496Z,100375.90
2023-04-16T09:52:43.147Z,100374.53
2023-04-16T09:55:11.096Z,100376.27
2023-04-16T09:57:38.967Z,100380.96
2023-04-16T10:00:09.100Z,100380.71
2023-04-16T10:02:41.488Z,100384.19
2023-04-16T10:05:09.693Z,100385.05
2023-04-16T10:07:37.784Z,100386.59
2023-04-16T10:10:05.745Z,100391.76
2023-04-16T10:12:33.736Z,100391.55
2023-04-16T10:15:01.799Z,100393.73
2023-04-16T10:17:31.003Z,100393.27
2023-04-16T10:19:59.900Z,100399.92
2023-04-16T10:22:27.639Z,100399.11
2023-04-16T10:24:55.545Z,100396.02
2023-04-16T10:27:23.385Z,100397.70
2023-04-16T10:29:51.464Z,100397.25
2023-04-16T10:32:21.727Z,100393.83
2023-04-16T10:34:49.559Z,100391.29
2023-04-16T10:37:18.572Z,100395.33
2023-04-16T10:39:46.286Z,100397.89
2023-04-16T10:42:14.190Z,100404.07
2023-04-16T10:44:45.060Z,100404.25
2023-04-16T10:47:13.802Z,100402.85
2023-04-16T10:49:42.589Z,100402.30
2023-04-16T10:52:16.837Z,100403.45
2023-04-16T10:54:46.337Z,100408.80
2023-04-16T10:57:18.187Z,100410.11
2023-04-16T10:59:46.365Z,100410.44
2023-04-16T11:02:16.097Z,100413.20
2023-04-16T11:04:45.533Z,100416.50
2023-04-16T11:07:16.625Z,100418.11
2023-04-16T11:09:51.169Z,100418.85
2023-04-16T11:12:39.133Z,100425.56
2023-04-16T11:15:13.610Z,100424.56
2023-04-16T11:17:45.610Z,100430.70
2023-04-16T11:20:31.379Z,100433.97
2023-04-16T11:22:59.145Z,100437.36
2023-04-16T11:25:29.764Z,100438.05
2023-04-16T11:27:59.004Z,100441.42
2023-04-16T11:30:30.908Z,100444.62
2023-04-16T11:32:58.722Z,100446.36
2023-04-16T11:35:27.160Z,100448.98
2023-04-16T11:37:58.470Z,100447.20
2023-04-16T11:40:29.755Z,100451.23
2023-04-16T11:43:02.043Z,100451.98
2023-04-16T11:45:29.811Z,100454.98
2023-04-16T11:47:57.759Z,100454.23
2023-04-16T11:50:27.199Z,100456.23
2023-04-16T11:52:56.584Z,100460.42
2023-04-16T11:55:24.743Z,100458.24
2023-04-16T11:57:52.491Z,100461.02
2023-04-16T12:00:23.142Z,100462.98
2023-04-16T12:02:53.777Z,100458.54
2023-04-16T12:05:38.863Z,100459.13
2023-04-16T12:08:10.749Z,100458.59
2023-04-16T12:10:52.931Z,100460.88
2023-04-16T12:13:21.118Z,100461.88
2023-04-16T12:15:48.798Z,100461.61
2023-04-16T12:18:17.236Z,100464.17
2023-04-16T12:20:45.271Z,100465.00
2023-04-16T12:23:28.987Z,100463.63
2023-04-16T12:26:02.264Z,100464.50
2023-04-16T12:28:34.196Z,100466.05
2023-04-16T12:31:02.603Z,100464.57
2023-04-16T12:33:30.961Z,100464.31
2023-04-16T12:35:58.699Z,100471.16
2023-04-16T12:38:27.060Z,100467.44
2023-04-16T12:40:57.356Z,100471.43
2023-04-16T12:43:25.604Z,100464.93
2023-04-16T12:45:53.444Z,100459.20
2023-04-16T12:48:21.289Z,100463.50
2023-04-16T12:50:48.965Z,100460.23
2023-04-16T12:53:16.877Z,100463.26
2023-04-16T12:55:45.358Z,100459.64
2023-04-16T12:58:13.158Z,100465.48
2023-04-16T13:00:40.857Z,100466.18
2023-04-16T13:03:08.662Z,100462.63
2023-04-16T13:05:36.485Z,100468.00
2023-04-16T13:08:04.213Z,100467.88
2023-04-16T13:10:31.913Z,100467.66
2023-04-16T13:12:59.608Z,100472.73
2023-04-16T13:15:27.344Z,100474.88
2023-04-16T13:17:55.206Z,100467.55
2023-04-16T13:20:24.534Z,100467.91
2023-04-16T13:22:52.447Z,100466.31
2023-04-16T13:25:20.398Z,100468.94
2023-04-16T13:27:48.046Z,100469.64
2023-04-16T13:30:17.324Z,100469.83
2023-04-16T13:32:45.453Z,100470.98
2023-04-16T13:35:13.179Z,100469.11
2023-04-16T13:37:40.864Z,100469.29
2023-04-16T13:40:08.986Z,100474.09
2023-04-16T13:42:36.839Z,100479.78
2023-04-16T13:45:04.775Z,100481.52
2023-04-16T13:47:32.563Z,100483.96
2023-04-16T13:50:00.919Z,100488.56
2023-04-16T13:52:28.566Z,100484.57
2023-04-16T13:54:57.841Z,100485.33
2023-04-16T13:57:28.318Z,100489.30
2023-04-16T13:59:56.286Z,100491.27
2023-04-16T14:02:25.912Z,100487.89
2023-04-16T14:04:54.065Z,100491.47
2023-04-16T14:07:25.563Z,100492.54
2023-04-16T14:09:53.704Z,100489.70
2023-04-16T14:12:21.424Z,100492.00
2023-04-16T14:14:49.131Z,100493.04
2023-04-16T14:17:16.783Z,100496.95
2023-04-16T14:19:44.507Z,100491.34
2023-04-16T14:22:12.202Z,100489.70
2023-04-16T14:24:39.857Z,100490.08
2023-04-16T14:27:08.053Z,100489.45
2023-04-16T14:29:36.449Z,100488.13
2023-04-16T14:32:04.580Z,100482.96
2023-04-16T14:34:32.444Z,100483.88
2023-04-16T14:37:00.171Z,100485.17
2023-04-16T14:39:27.857Z,100485.73
2023-04-16T14:41:55.758Z,100483.55
2023-04-16T14:44:23.443Z,100486.94
2023-04-16T14:46:51.455Z,100485.79
2023-04-16T14:49:19.134Z,100482.92
2023-04-16T14:51:47.031Z,100481.83
2023-04-16T14:54:14.760Z,100487.50
2023-04-16T14:56:42.787Z,100486.07
2023-04-16T14:59:11.124Z,100487.95
2023-04-16T15:01:42.283Z,100490.51
2023-04-16T15:04:10.256Z,100491.14
2023-04-16T15:06:38.396Z,100494.17
2023-04-16T15:09:07.422Z,100497.34
2023-04-16T15:11:35.316Z,100502.85
2023-04-16T15:14:03.056Z,100499.61
2023-04-16T15:16:30.896Z,100497.14
2023-04-16T15:18:58.666Z,100500.27
2023-04-16T15:21:27.916Z,100504.07
2023-04-16T15:23:55.661Z,100507.70
2023-04-16T15:26:23.357Z,100509.24
2023-04-16T15:28:51.285Z,100511.36
2023-04-16T15:31:20.777Z,100510.57
2023-04-16T15:33:48.766Z,100515.80
2023-04-16T15:36:16.494Z,100516.81
2023-04-16T15:38:44.207Z,100515.93
2023-04-16T15:41:12.002Z,100523.18
2023-04-16T15:43:39.722Z,100520.82
2023-04-16T15:46:08.590Z,100522.06
2023-04-16T15:48:36.377Z,100521.63
2023-04-16T15:51:04.126Z,100527.76
2023-04-16T15:53:31.852Z,100531.27
2023-04-16T15:56:00.100Z,100529.26
2023-04-16T15:58:27.816Z,100527.02
2023-04-16T16:00:55.537Z,100524.77
2023-04-16T16:03:23.536Z,100528.15
2023-04-16T16:05:51.430Z,100531.38
2023-04-16T16:08:19.082Z,100529.80
2023-04-16T16:10:46.846Z,100531.11
2023-04-16T16:13:18.057Z,100531.16
2023-04-16T16:15:46.261Z,100537.62
2023-04-16T16:18:14.007Z,100543.26
2023-04-16T16:20:41.791Z,100539.59
2023-04-16T16:23:09.705Z,100543.09
2023-04-16T16:25:37.598Z,100539.42
2023-04-16T16:28:06.691Z,100539.58
2023-04-16T16:30:34.957Z,100541.10
2023-04-16T16:33:02.666Z,100544.48
2023-04-16T16:35:31.091Z,100545.44
2023-04-16T16:37:59.409Z,100545.93
2023-04-16T16:40:27.596Z,100548.96
2023-04-16T16:42:55.666Z,100550.38
2023-04-16T16:45:25.970Z,100550.34
2023-04-16T16:47:54.647Z,100551.73
2023-04-16T16:50:22.608Z,100553.48
2023-04-16T16:52:50.379Z,100550.58
2023-04-16T16:55:18.952Z,100554.45
2023-04-16T16:57:46.871Z,100557.85
2023-04-16T17:00:16.093Z,100558.95
2023-04-16T17:02:44.430Z,100560.41
2023-04-16T17:05:12.612Z,100561.64
2023-04-16T17:07:40.493Z,100563.77
2023-04-16T17:10:10.993Z,100561.91
2023-04-16T17:12:38.729Z,100566.52
2023-04-16T17:15:06.762Z,100572.31
2023-04-16T17:17:34.592Z,100567.42
2023-04-16T17:20:08.008Z,100569.54
2023-04-16T17:22:36.299Z,100570.75
2023-04-16T17:25:04.506Z,100568.94
2023-04-16T17:27:34.306Z,100569.13
2023-04-16T17:30:03.003Z,100573.20
2023-04-16T17:32:32.540Z,100572.82
2023-04-16T17:35:01.760Z,100569.38
2023-04-16T17:37:29.465Z,100575.48
2023-04-16T17:39:57.096Z,100580.39
2023-04-16T17:42:24.862Z,100578.48
2023-04-16T17:44:53.149Z,100584.64
2023-04-16T17:47:20.913Z,100585.94
2023-04-16T17:49:48.746Z,100584.64
2023-04-16T17:52:16.476Z,100590.71
2023-04-16T17:54:44.791Z,100590.08
2023-04-16T17:57:12.306Z,100592.31
2023-04-16T17:59:40.106Z,100592.73
2023-04-16T18:02:07.841Z,100595.02
2023-04-16T18:04:36.051Z,100595.52
2023-04-16T18:07:03.971Z,100594.08
2023-04-16T18:09:32.017Z,100597.27
2023-04-16T18:11:59.750Z,100600.77
2023-04-16T18:14:27.550Z,100602.34
2023-04-16T18:16:55.258Z,100602.63
2023-04-16T18:19:22.999Z,100603.77
2023-04-16T18:21:50.736Z,100604.36
2023-04-16T18:24:18.542Z,100610.25
2023-04-16T18:26:47.118Z,100610.44
2023-04-16T18:29:15.372Z,100613.21
2023-04-16T18:31:44.116Z,100616.30
2023-04-16T18:34:12.571Z,100618.88
2023-04-16T18:36:40.791Z,100618.72
2023-04-16T18:39:08.872Z,100619.82
2023-04-16T18:41:37.165Z,100622.17
2023-04-16T18:44:04.921Z,100626.98
2023-04-16T18:46:32.735Z,100631.47
2023-04-16T18:49:00.596Z,100631.02
2023-04-16T18:51:28.463Z,100632.42
2023-04-16T18:53:56.332Z,100632.59
2023-04-16T18:56:24.339Z,100631.36
2023-04-16T18:58:52.250Z,100636.25
2023-04-16T19:01:20.457Z,100633.50
2023-04-16T19:03:48.365Z,100631.86
2023-04-16T19:06:16.253Z,100631.89
2023-04-16T19:08:44.055Z,100631.03
2023-04-16T19:11:11.785Z,100630.37
2023-04-16T19:13:39.745Z,100628.91
2023-04-16T19:16:11.386Z,100628.17
2023-04-16T19:18:39.825Z,100629.02
2023-04-16T19:21:07.855Z,100635.36
2023-04-16T19:23:35.579Z,100635.36
2023-04-16T19:26:03.628Z,100637.42
2023-04-16T19:28:31.762Z,100638.69
2023-04-16T19:30:59.467Z,100635.05
2023-04-16T19:33:27.139Z,100633.92
2023-04-16T19:35:54.952Z,100638.07
2023-04-16T19:38:22.613Z,100639.77
2023-04-16T19:40:50.701Z,100638.77
2023-04-16T19:43:18.376Z,100640.89
2023-04-16T19:45:46.768Z,100639.90
2023-04-16T19:48:14.638Z,100634.75
2023-04-16T19:50:42.544Z,100637.76
2023-04-16T19:53:11.263Z,100636.70
2023-04-16T19:55:39.472Z,100635.86
2023-04-16T19:58:07.615Z,100637.48
2023-04-16T20:00:40.668Z,100638.13
2023-04-16T20:03:08.711Z,100641.17
2023-04-16T20:05:36.594Z,100633.97
2023-04-16T20:08:04.593Z,100643.23
2023-04-16T20:10:32.252Z,100644.92
2023-04-16T20:13:00.007Z,100644.45
2023-04-16T20:15:27.846Z,100651.17
2023-04-16T20:17:56.418Z,100655.08
2023-04-16T20:20:24.348Z,100660.47
2023-04-16T20:22:52.042Z,100659.27
2023-04-16T20:25:20.430Z,100665.60
2023-04-16T20:27:48.164Z,100661.56
2023-04-16T20:30:16.246Z,100664.77
2023-04-16T20:32:44.178Z,100664.53
2023-04-16T20:35:12.032Z,100664.57
2023-04-16T20:37:42.030Z,100664.69
2023-04-16T20:40:10.973Z,100667.19
2023-04-16T20:42:40.802Z,100669.29
2023-04-16T20:45:08.962Z,100669.75
2023-04-16T20:47:36.632Z,100674.41
2023-04-16T20:50:04.652Z,100672.91
2023-04-16T20:52:32.593Z,100674.19
2023-04-16T20:55:00.691Z,100673.27
2023-04-16T20:57:29.660Z,100672.95
2023-04-16T20:59:58.453Z,100668.17
2023-04-16T21:02:28.013Z,100675.73
2023-04-16T21:04:56.329Z,100677.42
2023-04-16T21:07:24.242Z,100676.25
2023-04-16T21:09:51.945Z,100676.51
2023-04-16T21:12:19.590Z,100678.23
2023-04-16T21:14:47.301Z,100679.94
2023-04-16T21:17:14.987Z,100682.60
2023-04-16T21:19:42.667Z,100682.46
2023-04-16T21:22:10.504Z,100688.67
2023-04-16T21:24:38.231Z,100684.83
2023-04-16T21:27:06.112Z,100685.08
2023-04-16T21:29:33.745Z,100687.33
2023-04-16T21:32:01.636Z,100686.46
2023-04-16T21:34:29.554Z,100683.66
2023-04-16T21:36:57.244Z,100685.67
2023-04-16T21:39:27.503Z,100683.70
2023-04-16T21:41:56.395Z,100680.98
2023-04-16T21:44:24.161Z,100681.23
2023-04-16T21:46:51.884Z,100683.80
2023-04-16T21:49:19.661Z,100681.34
2023-04-16T21:51:47.455Z,100682.61
2023-04-16T21:54:17.814Z,100684.34
2023-04-16T21:56:46.148Z,100681.06
2023-04-16T21:59:13.783Z,100682.83
2023-04-16T22:01:41.504Z,100683.31
2023-04-16T22:04:09.810Z,100677.15
2023-04-16T22:06:37.908Z,100682.53
2023-04-16T22:09:06.628Z,100678.56
2023-04-16T22:11:34.292Z,100682.15
2023-04-16T22:14:02.973Z,100681.83
2023-04-16T22:16:31.029Z,100681.41
2023-04-16T22:18:59.214Z,100680.58
2023-04-16T22:21:27.398Z,100682.67
2023-04-16T22:23:55.402Z,100683.59
2023-04-16T22:26:23.097Z,100683.21
2023-04-16T22:28:51.419Z,100683.92
2023-04-16T22:31:19.276Z,100680.71
2023-04-16T22:33:46.927Z,100683.90
2023-04-16T22:36:14.716Z,100683.43
2023-04-16T22:38:42.334Z,100686.60
2023-04-16T22:41:10.143Z,100685.95
2023-04-16T22:43:37.856Z,100689.63
2023-04-16T22:46:06.760Z,100688.52
2023-04-16T22:48:36.291Z,100686.53
2023-04-16T22:51:07.318Z,100685.46
2023-04-16T22:53:35.837Z,100687.23
2023-04-16T22:56:03.529Z,100685.23
2023-04-16T22:58:31.263Z,100689.06
2023-04-16T23:00:59.540Z,100689.16
2023-04-16T23:03:27.484Z,100684.07
2023-04-16T23:05:55.335Z,100688.17
2023-04-16T23:08:23.145Z,100689.32
2023-04-16T23:10:50.954Z,100690.27
2023-04-16T23:13:18.614Z,100696.15
2023-04-16T23:15:47.225Z,100696.80
2023-04-16T23:18:15.428Z,100695.08
2023-04-16T23:20:43.152Z,100698.20
2023-04-16T23:23:10.822Z,100698.04
2023-04-16T23:25:40.627Z,100694.46
2023-04-16T23:28:08.281Z,100696.07
2023-04-16T23:30:36.084Z,100696.89
2023-04-16T23:33:04.601Z,100692.45
2023-04-16T23:35:32.453Z,100692.78
2023-04-16T23:38:00.529Z,100692.95
2023-04-16T23:40:28.356Z,100690.59
2023-04-16T23:42:56.051Z,100693.89
2023-04-16T23:45:23.820Z,100692.79
2023-04-16T23:47:51.723Z,100695.39
2023-04-16T23:50:19.620Z,100692.02
2023-04-16T23:52:47.368Z,100692.29
2023-04-16T23:55:15.164Z,100692.69
2023-04-16T23:57:42.912Z,100691.25
